NMSU Main Campus Data

Date Time Air Temperature Relative Humidity Dewpoint Windchill Heat Index Wind Speed Wind Dir. Rain Solar Radiation
2m 2m 3m 3m
US/Mountain F % F F F MPH deg in MJ/m^2
max avg avg
2021-04-08 00:05:00 63.8 8.4 2.3 63.8 63.8 2.8 2.8 2.4 151.9 153.9 0.00 0.0000020
2021-04-08 00:10:00 63.2 8.7 2.6 63.2 63.2 1.3 2.6 1.6 180.2 164.8 0.00 0.0000040
2021-04-08 00:15:00 62.1 8.9 2.3 62.1 62.1 0.0 1.7 0.6 108.6 158.6 0.00 0.0000040
2021-04-08 00:20:00 61.5 9.3 2.7 61.5 61.5 0.0 0.0 0.0 143.2 0.0 0.00 0.0000060
2021-04-08 00:25:00 60.6 11.9 7.5 60.6 60.6 1.5 1.7 0.2 185.4 188.1 0.00 0.0000302
2021-04-08 00:30:00 60.0 10.6 4.4 60.0 60.0 1.5 3.1 2.2 98.3 136.7 0.00 0.0000080
2021-04-08 00:35:00 60.0 10.8 4.9 60.0 60.0 0.8 2.6 1.8 154.4 123.0 0.00 0.0000201
2021-04-08 00:40:00 60.3 11.3 6.1 60.3 60.3 1.9 2.1 1.4 143.2 115.7 0.00 0.0000101
2021-04-08 00:45:00 60.6 10.5 4.7 60.6 60.6 2.2 3.3 2.1 188.7 119.4 0.00 0.0000221
2021-04-08 00:50:00 60.6 9.9 3.5 60.6 60.6 1.5 3.3 2.5 141.4 180.8 0.00 0.0000080
2021-04-08 00:55:00 60.0 11.7 6.6 60.0 60.0 0.0 1.9 0.5 172.3 163.3 0.00 0.0000121
2021-04-08 01:00:00 59.4 11.3 5.3 59.4 59.4 0.0 0.0 0.0 175.5 0.0 0.00 0.0000302
2021-04-08 01:05:00 58.6 11.9 5.9 58.6 58.6 0.0 2.1 0.8 176.3 166.6 0.00 0.0000362
2021-04-08 01:10:00 58.5 16.2 12.6 58.5 58.5 1.0 2.2 1.5 132.5 95.2 0.00 0.0000121
2021-04-08 01:15:00 58.0 14.7 10.1 58.0 58.0 0.0 1.0 0.1 105.6 123.6 0.00 0.0000040
2021-04-08 01:20:00 57.6 14.3 9.2 57.6 57.6 0.8 1.5 1.0 145.3 123.4 0.00 0.0000121
2021-04-08 01:25:00 57.4 13.2 7.3 57.4 57.4 0.0 0.8 0.1 186.3 130.5 0.00 0.0000101
2021-04-08 01:30:00 57.7 14.7 9.9 57.7 57.7 1.5 2.1 1.6 127.8 176.3 0.00 0.0000221
2021-04-08 01:35:00 56.8 12.5 5.6 56.8 56.8 1.2 1.7 1.2 189.1 176.6 0.00 0.0000161
2021-04-08 01:40:00 56.3 12.4 5.0 56.3 56.3 0.0 1.5 0.7 92.5 159.4 0.00 0.0000101
2021-04-08 01:45:00 55.8 14.1 7.4 55.8 55.8 0.0 0.0 0.0 87.8 0.0 0.00 0.0000020
2021-04-08 01:50:00 55.4 15.2 8.7 55.4 55.4 0.0 0.0 0.0 87.9 0.0 0.00 0.0000020
2021-04-08 01:55:00 55.8 17.7 12.5 55.8 55.8 0.0 1.0 0.4 77.3 81.9 0.00 0.0000000
2021-04-08 02:00:00 56.0 17.5 12.4 56.0 56.0 0.0 1.5 0.3 26.9 55.9 0.00 0.0000322
2021-04-08 02:05:00 55.9 21.3 16.8 55.9 55.9 2.6 2.6 0.6 179.6 191.2 0.00 0.0000181
2021-04-08 02:10:00 55.0 20.3 14.9 55.0 55.0 0.0 2.2 0.6 115.1 157.9 0.00 0.0000201
2021-04-08 02:15:00 54.8 17.2 11.0 54.8 54.8 0.0 1.0 0.2 57.7 90.1 0.00 0.0000201
2021-04-08 02:20:00 54.2 19.3 13.1 54.2 54.2 0.0 0.8 0.0 62.6 50.3 0.00 0.0000101
2021-04-08 02:25:00 54.2 19.5 13.4 54.2 54.2 0.0 0.8 0.0 84.2 135.2 0.00 0.0000040
2021-04-08 02:30:00 53.9 19.7 13.3 53.9 53.9 0.0 0.0 0.0 84.7 0.0 0.00 0.0000040
2021-04-08 02:35:00 53.5 21.1 14.6 53.5 53.5 1.3 1.3 0.2 189.1 192.4 0.00 0.0000141
2021-04-08 02:40:00 53.3 19.2 12.3 53.3 53.3 0.0 1.9 1.1 199.3 204.8 0.00 0.0000141
2021-04-08 02:45:00 53.0 18.6 11.3 53.0 53.0 1.2 1.3 0.6 195.3 192.9 0.00 0.0000402
2021-04-08 02:50:00 52.9 18.8 11.4 52.9 52.9 0.0 1.3 0.5 200.0 200.5 0.00 0.0000302
2021-04-08 02:55:00 52.4 20.6 13.1 52.4 52.4 0.0 0.0 0.0 184.7 0.0 0.00 0.0000161
2021-04-08 03:00:00 52.6 18.6 11.0 52.6 52.6 1.5 1.5 0.9 46.8 32.7 0.00 0.0000020
2021-04-08 03:05:00 53.0 20.9 14.0 53.0 53.0 1.0 1.7 1.0 324.2 18.7 0.00 0.0000040
2021-04-08 03:10:00 53.1 19.4 12.3 53.1 53.1 1.5 1.7 0.9 315.3 319.0 0.00 0.0000020
2021-04-08 03:15:00 52.4 20.1 12.6 52.4 52.4 0.0 1.3 0.5 319.1 319.1 0.00 0.0000080
2021-04-08 03:20:00 52.5 19.5 11.9 52.5 52.5 1.3 1.9 0.8 228.2 221.3 0.00 0.0000020
2021-04-08 03:25:00 52.4 19.0 11.3 52.4 52.4 2.4 2.4 0.9 208.2 213.7 0.00 0.0000101
2021-04-08 03:30:00 52.0 19.4 11.5 52.0 52.0 0.0 2.2 0.8 62.9 199.6 0.00 0.0000080
2021-04-08 03:35:00 51.8 20.5 12.5 51.8 51.8 0.0 0.8 0.1 84.0 72.2 0.00 0.0000000
2021-04-08 03:40:00 52.1 20.1 12.3 52.1 52.1 0.0 2.6 1.3 111.4 99.0 0.00 0.0000101
2021-04-08 03:45:00 52.1 19.5 11.7 52.1 52.1 1.3 1.5 0.5 63.3 67.1 0.00 0.0000020
2021-04-08 03:50:00 52.8 19.8 12.6 52.8 52.8 0.8 3.1 1.9 63.5 59.9 0.00 0.0000060
2021-04-08 03:55:00 53.2 17.2 9.7 53.2 53.2 2.6 2.6 1.2 63.9 57.0 0.00 0.0000040
2021-04-08 04:00:00 53.7 15.7 8.0 53.7 53.7 3.5 4.0 3.2 42.3 40.8 0.00 0.0000000
2021-04-08 04:05:00 53.7 14.7 6.7 53.7 53.7 3.3 4.4 3.1 39.2 34.7 0.00 0.0000000
2021-04-08 04:10:00 53.8 14.1 5.8 53.8 53.8 2.2 3.5 2.9 24.9 28.6 0.00 0.0000000
2021-04-08 04:15:00 53.3 17.8 10.6 53.3 53.3 1.5 2.2 1.3 320.0 333.2 0.00 0.0000000
2021-04-08 04:20:00 52.1 17.1 8.7 52.1 52.1 1.2 2.1 1.5 248.2 308.2 0.00 0.0000020
2021-04-08 04:25:00 52.0 21.6 13.9 52.0 52.0 1.5 2.1 1.0 141.8 183.7 0.00 0.0000000
2021-04-08 04:30:00 51.5 19.2 10.7 51.5 51.5 0.0 1.3 0.8 200.8 171.1 0.00 0.0000000
2021-04-08 04:35:00 51.4 20.3 11.9 51.4 51.4 1.0 2.6 1.6 184.1 157.7 0.00 0.0000000
2021-04-08 04:40:00 51.0 19.9 11.2 51.0 51.0 1.0 1.7 1.2 100.8 174.9 0.00 0.0000000
2021-04-08 04:45:00 50.5 19.7 10.5 50.5 50.5 0.0 1.5 0.9 189.8 136.3 0.00 0.0000000
2021-04-08 04:50:00 50.3 20.2 10.9 50.3 50.3 0.0 0.0 0.0 182.9 0.0 0.00 0.0000000
2021-04-08 04:55:00 50.1 19.8 10.4 50.1 50.1 0.0 0.0 0.0 121.7 0.0 0.00 0.0000040
2021-04-08 05:00:00 50.3 19.0 9.5 50.3 50.3 1.2 1.9 0.9 133.8 124.7 0.00 0.0000020
2021-04-08 05:05:00 50.8 19.2 10.3 50.8 50.8 1.3 1.9 1.3 83.2 109.6 0.00 0.0000040
2021-04-08 05:10:00 51.6 16.3 7.2 51.6 51.6 2.1 2.8 1.9 97.0 100.9 0.00 0.0000000
2021-04-08 05:15:00 52.1 14.1 4.4 52.1 52.1 1.9 2.2 1.3 30.1 58.7 0.00 0.0000000
2021-04-08 05:20:00 52.3 14.0 4.4 52.3 52.3 2.2 3.3 2.1 320.4 8.7 0.00 0.0000000
2021-04-08 05:25:00 52.3 15.8 7.0 52.3 52.3 0.0 3.1 1.6 132.2 327.7 0.00 0.0000000
2021-04-08 05:30:00 51.9 14.4 4.8 51.9 51.9 0.0 1.5 1.0 148.0 152.7 0.00 0.0000000
2021-04-08 05:35:00 51.5 20.2 11.9 51.5 51.5 2.4 2.4 0.8 222.3 222.9 0.00 0.0000000
2021-04-08 05:40:00 51.0 20.1 11.4 51.0 51.0 0.0 2.4 1.3 185.4 216.1 0.00 0.0000000
2021-04-08 05:45:00 50.7 16.6 6.8 50.7 50.7 2.1 2.1 0.6 157.8 175.4 0.00 0.0000020
2021-04-08 05:50:00 49.8 23.2 13.7 49.8 49.8 0.0 3.0 1.5 206.7 186.9 0.00 0.0000020
2021-04-08 05:55:00 49.3 20.7 10.6 49.3 49.3 1.0 1.7 1.0 94.5 83.0 0.00 0.0000000
2021-04-08 06:00:00 48.9 19.3 8.7 48.9 48.9 0.8 2.1 0.7 161.7 102.3 0.00 0.0000000
2021-04-08 06:05:00 49.2 19.5 9.1 49.2 49.2 1.9 2.4 1.1 169.4 176.5 0.00 0.0000040
2021-04-08 06:10:00 48.8 23.1 12.7 48.8 48.8 0.0 1.9 0.8 224.9 203.1 0.00 0.0000020
2021-04-08 06:15:00 48.5 20.1 9.4 48.5 48.5 2.1 2.1 0.6 10.2 334.8 0.00 0.0000000
2021-04-08 06:20:00 49.5 21.1 11.2 49.5 49.5 3.0 3.0 2.2 298.2 0.2 0.00 0.0000020
2021-04-08 06:25:00 49.4 23.5 13.5 48.8 49.4 3.1 4.0 2.9 318.8 325.1 0.00 0.0000322
2021-04-08 06:30:00 49.7 21.0 11.4 48.5 49.7 4.0 4.0 2.8 17.7 3.8 0.00 0.0000603
2021-04-08 06:35:00 49.9 19.0 9.3 49.9 49.9 1.0 3.7 2.1 60.5 23.4 0.00 0.0001468
2021-04-08 06:40:00 50.4 17.6 7.9 50.4 50.4 2.4 3.0 1.9 53.2 33.9 0.00 0.0003822
2021-04-08 06:45:00 50.8 17.7 8.4 50.8 50.8 0.8 3.3 1.5 238.5 34.1 0.00 0.0007442
2021-04-08 06:50:00 50.7 18.5 9.2 50.7 50.7 1.5 3.1 2.2 214.7 221.0 0.00 0.0011666
2021-04-08 06:55:00 50.4 18.3 8.8 50.4 50.4 0.0 2.2 1.0 185.6 212.8 0.00 0.0017680
2021-04-08 07:00:00 50.2 18.0 8.3 50.2 50.2 2.2 2.4 1.3 232.7 240.0 0.00 0.0025082
2021-04-08 07:05:00 50.7 18.2 8.9 50.7 50.7 0.0 1.9 1.1 171.0 218.6 0.00 0.0030191
2021-04-08 07:10:00 50.5 18.4 9.0 50.5 50.5 0.0 1.0 0.3 77.8 60.8 0.00 0.0041434
2021-04-08 07:15:00 50.4 20.1 10.9 50.4 50.4 0.0 0.0 0.0 194.8 0.0 0.00 0.0054749
2021-04-08 07:20:00 50.4 20.9 11.8 50.4 50.4 0.0 0.0 0.0 108.8 0.0 0.00 0.0062814
2021-04-08 07:25:00 50.5 20.7 11.7 50.5 50.5 0.0 1.5 0.4 114.9 106.9 0.00 0.0099503
2021-04-08 07:30:00 50.9 18.8 9.8 50.9 50.9 0.0 0.0 0.0 95.7 0.0 0.00 0.0302434
2021-04-08 07:35:00 51.7 19.2 10.9 51.7 51.7 0.0 1.2 0.3 291.6 192.0 0.00 0.0356162
2021-04-08 07:40:00 52.6 20.6 13.3 52.6 52.6 1.9 2.8 2.2 160.5 227.2 0.00 0.0404095
2021-04-08 07:45:00 53.1 20.8 13.9 53.1 53.1 1.9 2.1 1.5 175.6 174.4 0.00 0.0452508
2021-04-08 07:50:00 53.3 22.2 15.6 53.3 53.3 1.2 2.8 1.8 151.5 161.5 0.00 0.0504324
2021-04-08 07:55:00 53.9 19.6 13.2 53.9 53.9 0.0 2.1 0.9 142.5 212.3 0.00 0.0559370
2021-04-08 08:00:00 55.8 18.2 13.1 55.8 55.8 0.0 0.8 0.1 13.7 13.7 0.00 0.0617561
2021-04-08 08:05:00 58.0 16.4 12.5 58.0 58.0 0.0 0.0 0.0 339.1 0.0 0.00 0.0672867
2021-04-08 08:10:00 58.4 15.4 11.5 58.4 58.4 0.0 0.0 0.0 309.3 0.0 0.00 0.0723118
2021-04-08 08:15:00 59.3 14.8 11.3 59.3 59.3 1.2 1.7 0.3 203.0 193.7 0.00 0.0778700
2021-04-08 08:20:00 58.4 15.8 12.0 58.4 58.4 1.7 2.1 1.4 148.1 171.7 0.00 0.0837161
2021-04-08 08:25:00 57.5 17.1 13.1 57.5 57.5 1.3 3.0 2.0 173.5 171.2 0.00 0.0894444
2021-04-08 08:30:00 58.7 14.2 9.8 58.7 58.7 1.3 1.5 0.6 127.1 162.7 0.00 0.0950436
2021-04-08 08:35:00 59.9 14.4 11.2 59.9 59.9 1.3 2.2 0.9 203.7 184.4 0.00 0.1004804
2021-04-08 08:40:00 60.2 12.8 8.8 60.2 60.2 1.5 2.4 1.3 306.2 216.3 0.00 0.1060999
2021-04-08 08:45:00 60.5 15.0 12.5 60.5 60.5 2.8 2.8 1.7 154.5 178.0 0.00 0.1118737
2021-04-08 08:50:00 61.3 13.1 10.1 61.3 61.3 0.0 2.4 0.9 214.1 122.6 0.00 0.1171188
2021-04-08 08:55:00 61.1 12.7 9.4 61.1 61.1 1.7 2.8 1.9 203.8 173.7 0.00 0.1225950
2021-04-08 09:00:00 61.7 12.3 9.1 61.7 61.7 0.0 1.9 0.9 13.1 262.2 0.00 0.1282686
2021-04-08 09:05:00 62.6 11.3 7.8 62.6 62.6 2.6 3.0 1.5 193.1 136.7 0.00 0.1339597
2021-04-08 09:10:00 62.7 9.6 4.3 62.7 62.7 1.5 3.3 2.2 254.6 157.1 0.00 0.1392179
2021-04-08 09:15:00 63.2 13.4 12.2 63.2 63.2 3.1 3.5 2.1 153.6 239.0 0.00 0.1444903
2021-04-08 09:20:00 63.7 10.5 7.0 63.7 63.7 2.1 3.1 2.0 244.9 174.7 0.00 0.1494542
2021-04-08 09:25:00 64.5 10.1 6.9 64.5 64.5 1.7 3.1 1.4 157.8 170.5 0.00 0.1549416
2021-04-08 09:30:00 64.8 12.2 11.3 64.8 64.8 2.8 3.5 2.6 112.8 151.9 0.00 0.1602640
2021-04-08 09:35:00 65.2 10.7 8.7 65.2 65.2 1.2 3.0 2.0 10.4 264.8 0.00 0.1653081
2021-04-08 09:40:00 66.3 8.8 5.3 66.3 66.3 2.2 3.5 1.6 150.6 164.2 0.00 0.1706891
2021-04-08 09:45:00 65.9 7.7 2.1 65.9 65.9 2.4 4.4 3.1 178.7 188.0 0.00 0.1757190
2021-04-08 09:50:00 67.1 7.8 3.3 67.1 67.1 2.8 2.8 1.7 239.2 214.4 0.00 0.1805713
2021-04-08 09:55:00 66.5 10.1 8.4 66.5 66.5 2.1 4.2 3.0 330.2 310.2 0.00 0.1854840
2021-04-08 10:00:00 67.4 7.6 2.7 67.4 67.4 3.8 3.8 2.6 273.6 289.9 0.00 0.1900369
2021-04-08 10:05:00 68.1 6.6 0.2 68.1 68.1 2.4 3.8 2.6 30.2 337.0 0.00 0.1948247
2021-04-08 10:10:00 68.5 6.8 1.3 68.5 68.5 2.1 3.5 1.9 312.5 53.3 0.00 0.1991885
2021-04-08 10:15:00 69.6 6.7 1.8 69.6 69.6 1.9 3.5 2.5 44.2 355.6 0.00 0.2047721
2021-04-08 10:20:00 69.8 7.0 2.9 69.8 69.8 1.9 2.8 1.8 247.6 271.8 0.00 0.2103061
2021-04-08 10:25:00 70.3 6.8 2.7 70.3 70.3 2.1 3.3 2.3 306.7 294.3 0.00 0.2151368
2021-04-08 10:30:00 71.1 8.9 9.2 71.1 71.1 1.7 3.1 2.2 331.1 292.9 0.00 0.2187144
2021-04-08 10:35:00 72.5 5.1 -2.1 72.5 72.5 1.7 3.5 1.8 134.8 57.9 0.00 0.2213617
2021-04-08 10:40:00 72.6 5.9 1.1 72.6 72.6 1.2 4.7 2.9 321.1 352.8 0.00 0.2249493
2021-04-08 10:45:00 73.5 6.0 2.3 73.5 73.5 1.9 3.5 2.2 5.8 27.1 0.00 0.2263041
2021-04-08 10:50:00 73.5 5.6 0.6 73.5 73.5 2.6 5.6 4.0 40.3 352.1 0.00 0.2324733
2021-04-08 10:55:00 73.7 6.0 2.4 73.7 73.7 4.4 5.5 3.7 40.9 1.7 0.00 0.2359327
2021-04-08 11:00:00 74.0 6.9 5.6 74.0 74.0 6.5 6.9 4.3 331.8 349.3 0.00 0.2394588
2021-04-08 11:05:00 74.3 6.8 5.7 74.3 74.3 3.5 6.0 3.6 329.0 320.5 0.00 0.2429838
2021-04-08 11:10:00 74.7 6.1 3.6 74.7 74.7 3.1 6.9 3.6 48.7 33.3 0.00 0.2465070
2021-04-08 11:15:00 75.1 5.8 2.7 75.1 75.1 3.1 6.2 4.1 42.4 25.6 0.00 0.2498010
2021-04-08 11:20:00 76.3 9.0 13.4 76.3 76.3 4.4 4.4 2.7 321.0 38.5 0.00 0.2528213
2021-04-08 11:25:00 76.2 5.7 3.0 76.2 76.2 3.3 5.8 3.8 113.3 350.9 0.00 0.2556888
2021-04-08 11:30:00 75.5 6.1 3.9 75.5 75.5 3.3 5.3 3.2 272.4 303.3 0.00 0.2586909
2021-04-08 11:35:00 76.1 6.0 4.1 76.1 76.1 2.8 4.0 2.4 231.5 227.7 0.00 0.2614495
2021-04-08 11:40:00 77.4 6.2 5.9 77.4 77.4 2.4 3.3 2.4 54.6 71.3 0.00 0.2641420
2021-04-08 11:45:00 77.8 6.3 6.3 77.8 77.8 2.2 4.7 2.9 234.2 312.8 0.00 0.2666526
2021-04-08 11:50:00 77.7 7.5 10.1 77.7 77.7 4.6 8.1 4.8 277.7 267.4 0.00 0.2689642
2021-04-08 11:55:00 77.0 7.5 9.6 77.0 77.0 3.7 7.4 5.0 26.2 321.3 0.00 0.2710500
2021-04-08 12:00:00 77.5 6.1 5.4 77.5 77.5 5.1 6.2 3.8 48.6 38.3 0.00 0.2738662
2021-04-08 12:05:00 77.8 6.1 5.9 77.8 77.8 2.6 6.3 3.3 127.6 115.1 0.00 0.2777214
2021-04-08 12:10:00 78.4 6.4 7.1 78.4 78.4 5.1 5.1 3.2 124.1 128.8 0.00 0.2816150
2021-04-08 12:15:00 79.6 6.0 6.8 79.6 79.6 3.5 4.9 3.5 219.3 183.6 0.00 0.2536586
2021-04-08 12:20:00 80.0 5.8 6.2 80.0 80.0 3.0 4.9 2.8 158.3 158.1 0.00 0.2886024
2021-04-08 12:25:00 80.7 6.0 7.4 80.7 80.7 4.0 6.5 3.1 132.4 188.8 0.00 0.2881998
2021-04-08 12:30:00 79.4 7.2 10.5 79.4 79.4 3.5 5.3 4.3 147.4 121.4 0.00 0.2194411
2021-04-08 12:35:00 79.9 7.4 11.6 79.9 79.9 3.1 5.3 3.7 2.5 73.1 0.00 0.2451563
2021-04-08 12:40:00 80.1 6.2 7.8 80.1 80.1 3.8 6.5 3.8 79.6 64.8 0.00 0.2838967
2021-04-08 12:45:00 80.7 7.2 11.5 80.7 80.7 3.5 4.9 3.1 220.5 199.4 0.00 0.2863118
2021-04-08 12:50:00 81.9 8.0 14.8 81.9 81.9 7.4 7.4 4.6 186.5 166.2 0.00 0.2870500
2021-04-08 12:55:00 82.4 7.3 13.2 82.4 82.4 13.0 18.9 8.1 253.8 188.5 0.00 0.2856697
2021-04-08 13:00:00 81.9 8.0 14.8 81.9 81.9 12.2 16.0 9.5 273.8 266.3 0.00 0.2717537
2021-04-08 13:05:00 81.2 9.7 18.8 81.2 81.2 7.6 13.0 9.2 311.5 278.5 0.00 0.2538467
2021-04-08 13:10:00 81.1 8.1 14.5 81.1 81.1 9.2 12.4 7.9 239.2 280.6 0.00 0.2458725
2021-04-08 13:15:00 82.0 8.1 15.2 82.0 82.0 7.8 9.7 6.2 224.9 236.7 0.00 0.2816703
2021-04-08 13:20:00 81.8 8.5 16.1 81.8 81.8 19.6 19.6 9.2 225.7 232.9 0.00 0.2932892
2021-04-08 13:25:00 82.4 8.4 16.4 82.4 82.4 11.7 16.7 10.6 249.0 234.0 0.00 0.2837178
2021-04-08 13:30:00 81.9 9.1 17.6 81.9 81.9 7.4 17.8 11.1 261.2 228.7 0.00 0.2323969
2021-04-08 13:35:00 82.7 8.1 15.7 82.7 82.7 13.7 13.7 7.8 295.3 262.8 0.00 0.2906889
2021-04-08 13:40:00 83.6 8.9 18.6 83.6 83.6 6.5 12.6 7.8 236.8 250.5 0.00 0.2822551
2021-04-08 13:45:00 83.3 8.1 16.0 83.3 83.3 9.7 14.4 9.8 215.9 247.3 0.00 0.2998977
2021-04-08 13:50:00 82.3 8.2 15.8 82.3 82.3 6.7 13.1 9.4 242.5 247.4 0.00 0.2696719
2021-04-08 13:55:00 81.9 8.3 15.5 81.9 81.9 10.1 12.4 8.0 241.6 254.8 0.00 0.2213768
2021-04-08 14:00:00 82.2 7.9 14.6 82.2 82.2 13.7 14.6 9.6 231.0 222.3 0.00 0.2459218
2021-04-08 14:05:00 82.7 8.0 15.3 82.7 82.7 10.1 15.1 8.9 280.5 227.4 0.00 0.2696231
2021-04-08 14:10:00 81.9 7.9 14.5 81.9 81.9 6.9 13.3 8.4 247.2 236.5 0.00 0.2423126
2021-04-08 14:15:00 83.0 7.7 14.7 83.0 83.0 7.4 11.0 6.2 238.6 220.1 0.00 0.2125474
2021-04-08 14:20:00 82.6 8.1 15.6 82.6 82.6 9.4 13.3 8.2 240.8 238.1 0.00 0.2081925
2021-04-08 14:25:00 82.9 7.6 14.3 82.9 82.9 15.6 17.2 10.9 237.4 245.6 0.00 0.2256221
2021-04-08 14:30:00 83.4 7.4 14.3 83.4 83.4 10.1 14.9 9.3 270.6 245.1 0.00 0.2394864
2021-04-08 14:35:00 83.5 7.5 14.6 83.5 83.5 9.0 13.7 9.5 239.2 241.7 0.00 0.2617346
2021-04-08 14:40:00 84.5 7.4 15.0 84.5 84.5 13.1 15.8 8.2 258.2 232.9 0.00 0.2743421
2021-04-08 14:45:00 84.2 8.1 16.7 84.2 84.2 11.2 17.1 12.2 212.0 237.0 0.00 0.2726744
2021-04-08 14:50:00 85.0 7.8 16.5 85.0 85.0 9.7 14.0 9.9 212.5 243.3 0.00 0.2644286
2021-04-08 14:55:00 84.7 7.3 14.9 84.7 84.7 9.6 18.0 9.5 240.8 245.3 0.00 0.2538746
2021-04-08 15:00:00 84.2 7.9 16.3 84.2 84.2 7.8 13.3 10.0 254.9 243.1 0.00 0.2119842
2021-04-08 15:05:00 83.3 7.4 14.2 83.3 83.3 9.6 14.9 10.2 222.0 243.1 0.00 0.1180408
2021-04-08 15:10:00 84.0 7.7 15.6 84.0 84.0 9.6 15.6 10.1 205.9 245.9 0.00 0.2130797
2021-04-08 15:15:00 84.0 8.1 16.6 84.0 84.0 9.7 16.2 11.1 224.6 243.6 0.00 0.2384835
2021-04-08 15:20:00 84.6 6.9 13.3 84.6 84.6 14.9 16.2 11.4 221.6 233.3 0.00 0.2639764
2021-04-08 15:25:00 84.5 7.2 14.3 84.5 84.5 12.6 17.1 10.6 237.7 232.1 0.00 0.2193022
2021-04-08 15:30:00 84.7 6.9 13.5 84.7 84.7 20.6 20.6 13.6 243.6 242.9 0.00 0.2578681
2021-04-08 15:35:00 83.4 7.1 13.2 83.4 83.4 9.7 18.5 11.5 233.5 232.6 0.00 0.1375197
2021-04-08 15:40:00 83.0 7.6 14.4 83.0 83.0 9.2 15.6 11.2 215.4 238.8 0.00 0.1414160
2021-04-08 15:45:00 83.1 7.3 13.6 83.1 83.1 12.2 17.6 14.5 280.4 239.9 0.00 0.1830616
2021-04-08 15:50:00 83.7 7.2 13.9 83.7 83.7 11.3 17.4 12.1 217.7 246.7 0.00 0.1677977
2021-04-08 15:55:00 83.6 7.1 13.2 83.6 83.6 16.4 19.4 11.2 234.9 253.0 0.00 0.1661526
2021-04-08 16:00:00 84.2 7.2 14.2 84.2 84.2 11.3 16.7 10.6 217.6 246.1 0.00 0.1816574
2021-04-08 16:05:00 84.2 6.8 12.7 84.2 84.2 17.2 23.0 13.6 243.0 246.7 0.00 0.2055396
2021-04-08 16:10:00 83.8 6.3 10.7 83.8 83.8 21.5 21.5 13.6 275.7 245.1 0.00 0.1989800
2021-04-08 16:15:00 83.6 6.8 12.4 83.6 83.6 10.1 22.3 16.1 223.3 244.0 0.00 0.1772005
2021-04-08 16:20:00 84.2 6.7 12.3 84.2 84.2 15.6 19.0 13.2 260.9 241.7 0.00 0.1645325
2021-04-08 16:25:00 84.5 6.9 13.5 84.5 84.5 10.5 15.5 12.2 246.3 236.0 0.00 0.1622214
2021-04-08 16:30:00 83.6 7.0 13.0 83.6 83.6 9.7 19.6 12.5 246.1 241.2 0.00 0.1197434
2021-04-08 16:35:00 83.5 7.0 12.9 83.5 83.5 10.5 24.4 14.1 233.0 248.9 0.00 0.1747103
2021-04-08 16:40:00 84.2 6.8 12.9 84.2 84.2 11.2 19.9 14.0 252.3 247.3 0.00 0.1604514
2021-04-08 16:45:00 83.7 6.9 12.9 83.7 83.7 16.2 16.5 11.2 241.5 251.1 0.00 0.1023770
2021-04-08 16:50:00 83.6 6.8 12.3 83.6 83.6 15.6 18.5 10.5 234.8 260.8 0.00 0.1294617
2021-04-08 16:55:00 83.8 6.7 12.1 83.8 83.8 14.0 14.7 10.0 232.5 263.1 0.00 0.1265653
2021-04-08 17:00:00 84.3 6.5 12.0 84.3 84.3 15.5 18.1 13.4 234.4 235.5 0.00 0.1644527
2021-04-08 17:05:00 84.1 6.9 13.1 84.1 84.1 17.6 19.2 13.6 243.4 246.6 0.00 0.1553968
2021-04-08 17:10:00 83.9 6.8 12.5 83.9 83.9 13.1 19.9 13.5 278.2 242.7 0.00 0.1292233
2021-04-08 17:15:00 83.5 6.9 12.5 83.5 83.5 11.9 20.3 14.4 217.2 246.3 0.00 0.1004542
2021-04-08 17:20:00 83.3 7.1 13.2 83.3 83.3 9.7 18.3 12.4 207.0 245.7 0.00 0.1150422
2021-04-08 17:25:00 84.0 7.1 13.8 84.0 84.0 14.0 20.1 11.7 237.4 255.8 0.00 0.1322190
2021-04-08 17:30:00 83.4 7.1 13.2 83.4 83.4 16.5 17.4 12.4 257.1 244.8 0.00 0.1232090
2021-04-08 17:35:00 84.1 7.2 13.9 84.1 84.1 14.6 16.9 12.5 258.5 244.3 0.00 0.1181848
2021-04-08 17:40:00 83.7 7.2 13.7 83.7 83.7 10.5 18.0 11.7 254.0 243.2 0.00 0.1103578
2021-04-08 17:45:00 83.3 7.1 13.0 83.3 83.3 14.7 18.7 14.1 237.2 244.3 0.00 0.1056506
2021-04-08 17:50:00 83.4 7.1 13.3 83.4 83.4 10.8 17.6 11.1 224.7 252.4 0.00 0.1010333
2021-04-08 17:55:00 83.5 7.0 12.9 83.5 83.5 16.9 16.9 11.1 237.5 238.2 0.00 0.0961399
2021-04-08 18:00:00 83.5 7.0 12.8 83.5 83.5 11.9 16.9 12.6 245.1 244.4 0.00 0.0880001
2021-04-08 18:05:00 83.2 6.8 11.9 83.2 83.2 11.2 19.6 13.0 232.4 237.1 0.00 0.0875854
2021-04-08 18:10:00 83.1 7.0 12.6 83.1 83.1 8.3 15.3 11.5 238.2 248.0 0.00 0.0822700
2021-04-08 18:15:00 83.0 6.3 10.3 83.0 83.0 10.6 18.5 11.2 256.1 245.8 0.00 0.0775745
2021-04-08 18:20:00 83.2 6.5 11.1 83.2 83.2 9.0 17.6 10.9 207.5 244.6 0.00 0.0703375
2021-04-08 18:25:00 82.5 6.3 10.0 82.5 82.5 12.4 18.5 12.2 226.6 253.1 0.00 0.0632179
2021-04-08 18:30:00 82.5 6.0 8.9 82.5 82.5 6.5 17.1 11.5 318.7 253.0 0.00 0.0566814
2021-04-08 18:35:00 82.7 6.2 9.6 82.7 82.7 12.8 13.5 9.1 249.0 246.9 0.00 0.0529543
2021-04-08 18:40:00 82.8 6.1 9.2 82.8 82.8 11.9 14.9 9.6 237.0 241.0 0.00 0.0485288
2021-04-08 18:45:00 82.3 5.8 7.8 82.3 82.3 12.4 19.2 11.8 219.1 245.4 0.00 0.0418393
2021-04-08 18:50:00 82.4 6.2 9.4 82.4 82.4 7.8 18.3 11.0 238.2 250.5 0.00 0.0370022
2021-04-08 18:55:00 82.0 6.8 11.1 82.0 82.0 8.1 11.7 8.2 266.8 253.2 0.00 0.0309444
2021-04-08 19:00:00 81.9 6.4 9.8 81.9 81.9 8.7 12.8 8.1 258.8 243.9 0.00 0.0242826
2021-04-08 19:05:00 81.7 6.9 11.2 81.7 81.7 6.3 11.7 7.7 252.5 250.5 0.00 0.0196674
2021-04-08 19:10:00 81.5 6.4 9.5 81.5 81.5 8.8 12.4 7.8 267.9 244.2 0.00 0.0149032
2021-04-08 19:15:00 81.4 6.4 9.2 81.4 81.4 6.3 11.3 8.7 261.6 252.6 0.00 0.0104360
2021-04-08 19:20:00 80.7 6.7 9.9 80.7 80.7 8.3 10.1 7.3 237.9 249.5 0.00 0.0058664
2021-04-08 19:25:00 80.8 6.5 9.3 80.8 80.8 8.8 13.9 9.0 244.2 249.5 0.00 0.0038835
2021-04-08 19:30:00 80.6 6.9 10.5 80.6 80.6 9.9 10.8 7.1 233.6 254.8 0.00 0.0026954
2021-04-08 19:35:00 80.0 6.7 9.4 80.0 80.0 9.2 9.4 6.8 251.1 249.7 0.00 0.0019790
2021-04-08 19:40:00 80.1 6.9 10.0 80.1 80.1 10.8 11.9 7.5 278.7 250.5 0.00 0.0013387
2021-04-08 19:45:00 79.8 6.9 9.9 79.8 79.8 9.9 11.9 7.8 243.7 247.3 0.00 0.0004937
2021-04-08 19:50:00 79.6 7.2 10.9 79.6 79.6 8.5 12.2 7.7 238.6 265.5 0.00 0.0001545
2021-04-08 19:55:00 79.2 7.6 11.5 79.2 79.2 9.2 9.2 7.0 294.4 263.3 0.00 0.0000341
2021-04-08 20:00:00 78.7 8.1 12.6 78.7 78.7 6.7 12.2 6.8 285.7 268.1 0.00 0.0000000
2021-04-08 20:05:00 78.8 7.7 11.7 78.8 78.8 8.0 11.5 7.5 266.7 277.4 0.00 0.0000000
2021-04-08 20:10:00 78.1 8.4 13.0 78.1 78.1 6.5 13.9 8.7 280.8 284.2 0.00 0.0000000
2021-04-08 20:15:00 77.5 8.9 13.8 77.5 77.5 5.1 8.8 6.8 307.5 286.5 0.00 0.0000000
2021-04-08 20:20:00 77.5 8.2 12.1 77.5 77.5 8.0 10.8 7.7 288.3 285.7 0.00 0.0000000
2021-04-08 20:25:00 77.3 8.8 13.5 77.3 77.3 5.8 9.2 6.5 286.3 289.0 0.00 0.0000000
2021-04-08 20:30:00 77.0 8.7 13.0 77.0 77.0 5.1 7.8 5.3 258.2 276.9 0.00 0.0000000
2021-04-08 20:35:00 76.6 8.9 13.4 76.6 76.6 4.9 9.0 6.1 292.8 284.2 0.00 0.0000000
2021-04-08 20:40:00 76.4 8.6 12.4 76.4 76.4 3.7 10.8 5.9 285.8 285.0 0.00 0.0000000
2021-04-08 20:45:00 75.9 9.3 13.9 75.9 75.9 8.7 8.7 4.8 273.2 276.6 0.00 0.0000000
2021-04-08 20:50:00 76.1 9.0 13.1 76.1 76.1 4.7 11.0 5.8 254.0 272.7 0.00 0.0000000
2021-04-08 20:55:00 76.1 9.8 15.0 76.1 76.1 9.2 9.4 6.3 277.8 272.0 0.00 0.0000000
2021-04-08 21:00:00 76.5 9.3 14.2 76.5 76.5 8.5 12.1 7.3 294.8 280.8 0.00 0.0000000
2021-04-08 21:05:00 76.0 10.2 16.0 76.0 76.0 8.5 10.5 6.2 300.9 289.9 0.00 0.0000000
2021-04-08 21:10:00 75.7 9.4 13.8 75.7 75.7 6.7 10.8 6.6 286.3 287.7 0.00 0.0000000
2021-04-08 21:15:00 75.8 10.2 15.7 75.8 75.8 8.3 10.6 7.8 302.2 295.3 0.00 0.0000020
2021-04-08 21:20:00 75.5 9.8 14.6 75.5 75.5 7.2 9.7 6.9 299.4 297.6 0.00 0.0000000
2021-04-08 21:25:00 75.1 10.5 15.8 75.1 75.1 7.8 12.1 8.4 282.4 294.5 0.00 0.0000000
2021-04-08 21:30:00 74.5 10.6 15.7 74.5 74.5 5.8 9.7 6.4 256.6 293.2 0.00 0.0000000
2021-04-08 21:35:00 74.2 10.6 15.4 74.2 74.2 6.5 9.2 6.8 290.6 293.6 0.00 0.0000000
2021-04-08 21:40:00 73.9 11.6 17.3 73.9 73.9 5.8 8.1 5.9 315.3 287.6 0.00 0.0000000
2021-04-08 21:45:00 73.5 11.1 15.9 73.5 73.5 5.3 8.5 6.0 296.1 292.5 0.00 0.0000000
2021-04-08 21:50:00 72.9 11.9 17.2 72.9 72.9 4.7 7.8 4.4 273.4 288.4 0.00 0.0000000
2021-04-08 21:55:00 72.9 11.0 15.3 72.9 72.9 3.5 6.0 4.4 288.1 290.7 0.00 0.0000000
2021-04-08 22:00:00 72.1 11.5 15.6 72.1 72.1 4.0 5.5 3.4 283.7 281.9 0.00 0.0000000
2021-04-08 22:05:00 72.1 11.7 16.1 72.1 72.1 3.5 4.6 3.4 277.8 287.4 0.00 0.0000000
2021-04-08 22:10:00 71.6 12.1 16.4 71.6 71.6 2.2 4.9 2.7 292.3 287.1 0.00 0.0000000
2021-04-08 22:15:00 70.9 12.1 15.9 70.9 70.9 2.4 4.0 3.1 317.5 313.9 0.00 0.0000020
2021-04-08 22:20:00 70.6 11.5 14.6 70.6 70.6 3.0 4.0 3.2 308.3 308.8 0.00 0.0000040
2021-04-08 22:25:00 70.2 12.5 16.0 70.2 70.2 1.0 2.8 1.4 256.0 289.5 0.00 0.0000080
2021-04-08 22:30:00 69.9 12.0 15.0 69.9 69.9 1.0 2.8 1.5 283.2 270.6 0.00 0.0000020
2021-04-08 22:35:00 69.5 13.4 17.2 69.5 69.5 2.2 3.3 2.1 298.2 294.8 0.00 0.0000000
2021-04-08 22:40:00 69.4 13.1 16.5 69.4 69.4 3.1 4.0 2.5 240.1 281.8 0.00 0.0000000
2021-04-08 22:45:00 69.0 13.1 16.3 69.0 69.0 1.5 4.6 2.8 270.3 287.1 0.00 0.0000000
2021-04-08 22:50:00 68.6 13.4 16.4 68.6 68.6 3.3 5.1 2.5 302.9 290.4 0.00 0.0000000
2021-04-08 22:55:00 68.6 12.9 15.6 68.6 68.6 4.2 6.0 3.9 305.2 298.7 0.00 0.0000020
2021-04-08 23:00:00 68.8 13.0 15.9 68.8 68.8 3.1 6.2 3.7 307.3 300.1 0.00 0.0000000
2021-04-08 23:05:00 68.5 12.4 14.5 68.5 68.5 2.8 4.4 3.1 337.8 314.2 0.00 0.0000000
2021-04-08 23:10:00 68.7 13.2 16.1 68.7 68.7 2.8 5.1 3.2 310.5 319.4 0.00 0.0000040
2021-04-08 23:15:00 68.4 12.2 14.1 68.4 68.4 4.6 4.6 3.3 300.8 317.4 0.00 0.0000040
2021-04-08 23:20:00 68.0 13.2 15.6 68.0 68.0 3.1 6.0 3.9 315.9 307.4 0.00 0.0000121
2021-04-08 23:25:00 68.0 13.0 15.3 68.0 68.0 4.7 6.2 4.7 315.4 311.1 0.00 0.0000020
2021-04-08 23:30:00 67.9 13.0 15.3 67.9 67.9 3.7 4.7 3.6 308.5 309.3 0.00 0.0000040
2021-04-08 23:35:00 68.3 13.6 16.5 68.3 68.3 3.3 5.6 4.1 305.1 311.2 0.00 0.0000040
2021-04-08 23:40:00 68.3 13.5 16.4 68.3 68.3 3.7 6.2 4.2 315.1 313.2 0.00 0.0000000
2021-04-08 23:45:00 68.6 12.9 15.5 68.6 68.6 4.7 6.7 4.2 304.0 313.2 0.00 0.0000020
2021-04-08 23:50:00 68.5 12.8 15.2 68.5 68.5 3.5 5.6 3.4 308.3 317.4 0.00 0.0000000
2021-04-08 23:55:00 68.4 12.7 15.0 68.4 68.4 1.0 2.8 2.0 3.6 351.0 0.00 0.0000000
2021-04-09 00:00:00 68.2 13.4 16.1 68.2 68.2 2.1 3.0 1.9 3.9 5.4 0.00 0.0000060

Data is courtesy of the NM Climate Center. DO NOT USE IN LEGAL PROCEEDINGS.